Rayong, Thailand

8:21 AM ICT on March 31, 2015 (GMT +0700)
Nhong Yai In | | Change Station
CLOSE
Current Station
Personal Weather Station
Location: Phe, Rayong
Elevation: 26 ft
Nearby Weather Stations

Elev 26 ft 12.62 °N, 101.40 °E | Updated 0 second ago

Scattered Clouds
Scattered Clouds
84.4 °F
Feels Like 96 °F
N
4.0
Wind Variable Wind from WSW
Gusts 4.0 mph

Today
High -- | Low -- °F
--% Chance of Precip.
Yesterday
High -- | Low -- °F
Precip. -- in
6:12 AM 6:25 PM
Waxing Gibbous, 83% visible
Pressure 29.89 in
Visibility 3.1 miles
Clouds Few 2000 ft
Scattered Clouds 30000 ft
Heat Index 96 °F
Dew Point 79 °F
Humidity 83%
Rainfall 0.00 in
Snow Depth Not available.
UV 3 out of 12
Pollen Not available.
Air Quality Not available.
Flu Activity Not available.
METAR VTBU 310100Z 06003KT 5000 BR FEW020 SCT300 28/24 Q1012 A2990

More Conditions Fewer Conditions

Pressure 29.89 in
Visibility 3.1 miles
Clouds Few 2000 ft
Scattered Clouds 30000 ft
Heat Index 96 °F
Dew Point 79 °F
Humidity 83%
Rainfall 0.00 in
Snow Depth Not available.
UV 3 out of 12
Pollen Not available.
Air Quality Not available.
Flu Activity Not available.
METAR VTBU 310100Z 06003KT 5000 BR FEW020 SCT300 28/24 Q1012 A2990

More Conditions Fewer Conditions

10-Day Weather Forecast

Almanac

Astronomy

Mar. 31, 2015 Rise Set
Actual Time
Civil Twilight
Nautical Twilight
Astronomical Twilight
Moon
Length of Visible Light
Length of Day
Tomorrow will be .
, % of the Moon is Illuminated

Today's Extremes

Country Highs Country Lows

Community

WunderPhotos

Upload Photos

1,809,651 photos uploaded!

WunderBlogs® & News

Nearby

Air Quality

  Air Quality AQ Index Pollutant
Not available.

Snow Depth

Station Depth Elevation

Earthquake Activity

City Distance Mag. Time & Date
Minimum magnitude displayed is 2.5.

Coastal Water Temperatures

Place Temperature

Stations

Nearby Weather Stations

Station Location Temp. Windchill Dew Point Humidity Wind Precip. Elev Updated Type